createdAt,value
2017-06-18T00:00:26.109Z,59.51
2017-06-18T00:01:26.111Z,59.32
2017-06-18T00:02:26.110Z,59.12
2017-06-18T00:03:26.108Z,59.32
2017-06-18T00:04:26.105Z,59.22
2017-06-18T00:05:26.103Z,59.22
2017-06-18T00:06:26.102Z,59.61
2017-06-18T00:07:26.102Z,59.89
2017-06-18T00:08:25.790Z,59.89
2017-06-18T00:09:25.789Z,59.61
2017-06-18T00:10:26.099Z,60.08
2017-06-18T00:11:26.091Z,59.8
2017-06-18T00:12:26.091Z,59.7
2017-06-18T00:13:25.783Z,59.7
2017-06-18T00:14:26.090Z,59.8
2017-06-18T00:15:26.085Z,59.8
2017-06-18T00:16:26.085Z,59.8
2017-06-18T00:17:26.082Z,59.7
2017-06-18T00:18:26.082Z,59.8
2017-06-18T00:19:26.077Z,59.7
2017-06-18T00:20:26.078Z,59.89
2017-06-18T00:21:26.075Z,60.28
2017-06-18T00:22:26.073Z,60.18
2017-06-18T00:23:26.072Z,60.08
2017-06-18T00:24:25.768Z,59.99
2017-06-18T00:25:26.070Z,60.08
2017-06-18T00:26:26.065Z,60.05
2017-06-18T00:27:26.062Z,60.28
2017-06-18T00:28:25.758Z,60.05
2017-06-18T00:29:26.060Z,60.82
2017-06-18T00:30:26.060Z,60.82
2017-06-18T00:31:25.753Z,60.05
2017-06-18T00:32:26.054Z,60.75
2017-06-18T00:33:26.054Z,60.75
2017-06-18T00:34:26.051Z,60.95
2017-06-18T00:35:25.744Z,60.53
2017-06-18T00:36:25.745Z,60.63
2017-06-18T00:37:26.046Z,60.53
2017-06-18T00:38:26.044Z,60.85
2017-06-18T00:39:26.044Z,61.21
2017-06-18T00:40:26.040Z,61.02
2017-06-18T00:41:26.040Z,61.21
2017-06-18T00:42:26.039Z,61.3
2017-06-18T00:43:26.035Z,60.92
2017-06-18T00:44:26.031Z,61.4
2017-06-18T00:45:25.724Z,61.69
2017-06-18T00:46:26.029Z,61.88
2017-06-18T00:47:26.027Z,61.88
2017-06-18T00:48:26.025Z,61.59
2017-06-18T00:49:26.023Z,61.69
2017-06-18T00:50:26.022Z,61.49
2017-06-18T00:51:26.021Z,62.16
2017-06-18T00:52:26.019Z,61.98
2017-06-18T00:53:26.015Z,61.78
2017-06-18T00:54:26.014Z,61.88
2017-06-18T00:55:25.708Z,62.07
2017-06-18T00:56:26.013Z,62.45
2017-06-18T00:57:26.010Z,61.98
2017-06-18T00:58:26.011Z,61.88
2017-06-18T00:59:26.003Z,61.78
2017-06-18T01:00:25.697Z,62.45
2017-06-18T01:01:25.999Z,62.36
2017-06-18T01:02:26.001Z,62.65
2017-06-18T01:03:25.997Z,62.74
2017-06-18T01:04:25.689Z,62.36
2017-06-18T01:05:25.998Z,62.45
2017-06-18T01:06:25.994Z,62.45
2017-06-18T01:07:25.990Z,62.26
2017-06-18T01:08:25.985Z,62.26
2017-06-18T01:09:25.679Z,62.07
2017-06-18T01:10:25.985Z,62.45
2017-06-18T01:11:25.984Z,62.36
2017-06-18T01:12:25.981Z,62.45
2017-06-18T01:13:25.982Z,62.36
2017-06-18T01:14:25.976Z,62.26
2017-06-18T01:15:25.669Z,62.26
2017-06-18T01:16:25.973Z,62.93
2017-06-18T01:17:25.969Z,62.55
2017-06-18T01:18:25.659Z,62.74
2017-06-18T01:19:25.967Z,62.65
2017-06-18T01:20:25.966Z,62.93
2017-06-18T01:21:25.961Z,63.03
2017-06-18T01:22:25.963Z,62.55
2017-06-18T01:23:25.957Z,62.74
2017-06-18T01:24:25.955Z,62.93
2017-06-18T01:25:25.952Z,63.22
2017-06-18T01:26:25.952Z,63.22
2017-06-18T01:27:25.950Z,63.32
2017-06-18T01:28:25.948Z,63.12
2017-06-18T01:29:25.947Z,63.6
2017-06-18T01:30:25.942Z,63.22
2017-06-18T01:31:25.940Z,63.32
2017-06-18T01:32:25.635Z,63.12
2017-06-18T01:33:25.936Z,63.89
2017-06-18T01:34:25.942Z,63.79
2017-06-18T01:35:25.931Z,63.22
2017-06-18T01:36:25.627Z,63.42
2017-06-18T01:37:25.930Z,63.03
2017-06-18T01:38:25.927Z,62.9
2017-06-18T01:39:25.925Z,63.22
2017-06-18T01:40:25.922Z,63.7
2017-06-18T01:41:25.919Z,63.7
2017-06-18T01:42:25.919Z,63.7
2017-06-18T01:43:25.610Z,63.6
2017-06-18T01:44:25.915Z,63.38
2017-06-18T01:45:25.915Z,63.42
2017-06-18T01:46:25.909Z,63.6
2017-06-18T01:47:25.603Z,63.32
2017-06-18T01:48:25.905Z,63.32
2017-06-18T01:49:25.901Z,63.79
2017-06-18T01:50:25.902Z,63.7
2017-06-18T01:51:25.898Z,63.22
2017-06-18T01:52:25.898Z,63.6
2017-06-18T01:53:25.896Z,63.89
2017-06-18T01:54:25.894Z,63.79
2017-06-18T01:55:25.891Z,63.6
2017-06-18T01:56:25.891Z,63.79
2017-06-18T01:57:25.886Z,63.7
2017-06-18T01:58:25.884Z,63.99
2017-06-18T01:59:25.882Z,63.7
2017-06-18T02:00:25.880Z,64.15
2017-06-18T02:01:25.880Z,64.05
2017-06-18T02:02:25.877Z,63.96
2017-06-18T02:03:25.878Z,63.99
2017-06-18T02:04:25.869Z,64.05
2017-06-18T02:05:25.872Z,63.79
2017-06-18T02:06:25.870Z,64.15
2017-06-18T02:07:25.871Z,64.53
2017-06-18T02:08:25.863Z,64.72
2017-06-18T02:09:25.860Z,64.82
2017-06-18T02:10:25.553Z,64.82
2017-06-18T02:11:25.856Z,64.53
2017-06-18T02:12:25.855Z,64.76
2017-06-18T02:13:25.853Z,64.53
2017-06-18T02:14:25.852Z,64.72
2017-06-18T02:15:25.848Z,64.66
2017-06-18T02:16:25.844Z,64.53
2017-06-18T02:17:25.844Z,64.43
2017-06-18T02:18:25.842Z,64.63
2017-06-18T02:19:25.839Z,64.53
2017-06-18T02:20:25.834Z,64.76
2017-06-18T02:21:25.837Z,64.53
2017-06-18T02:22:25.831Z,64.43
2017-06-18T02:23:25.833Z,64.53
2017-06-18T02:24:25.828Z,64.43
2017-06-18T02:25:25.520Z,64.53
2017-06-18T02:26:25.822Z,64.63
2017-06-18T02:27:25.820Z,64.43
2017-06-18T02:28:25.820Z,64.53
2017-06-18T02:29:25.818Z,64.34
2017-06-18T02:30:25.817Z,64.72
2017-06-18T02:31:25.815Z,64.72
2017-06-18T02:32:25.814Z,64.82
2017-06-18T02:33:25.808Z,64.63
2017-06-18T02:34:25.806Z,64.63
2017-06-18T02:35:25.499Z,64.25
2017-06-18T02:36:25.802Z,64.43
2017-06-18T02:37:25.801Z,64.34
2017-06-18T02:38:25.797Z,64.72
2017-06-18T02:39:25.798Z,64.53
2017-06-18T02:40:25.792Z,65.01
2017-06-18T02:41:25.790Z,64.47
2017-06-18T02:42:25.791Z,64.53
2017-06-18T02:43:25.788Z,65.05
2017-06-18T02:44:25.789Z,64.25
2017-06-18T02:45:25.809Z,64.43
2017-06-18T02:46:25.476Z,64.95
2017-06-18T02:47:25.471Z,64.95
2017-06-18T02:48:25.468Z,65.11
2017-06-18T02:49:25.800Z,65.01
2017-06-18T02:50:25.774Z,64.82
2017-06-18T02:51:25.771Z,65.01
2017-06-18T02:52:25.766Z,64.63
2017-06-18T02:53:25.766Z,64.82
2017-06-18T02:54:25.765Z,64.92
2017-06-18T02:55:25.455Z,65.11
2017-06-18T02:56:25.761Z,64.92
2017-06-18T02:57:25.761Z,64.92
2017-06-18T02:58:25.754Z,64.92
2017-06-18T02:59:25.753Z,64.85
2017-06-18T03:00:25.749Z,65.3
2017-06-18T03:01:25.748Z,65.39
2017-06-18T03:02:25.745Z,65.3
2017-06-18T03:03:25.742Z,65.01
2017-06-18T03:04:25.438Z,65.11
2017-06-18T03:05:25.739Z,65.3
2017-06-18T03:06:25.739Z,65.39
2017-06-18T03:07:25.430Z,65.39
2017-06-18T03:08:25.735Z,65.2
2017-06-18T03:09:25.733Z,65.3
2017-06-18T03:10:25.730Z,65.2
2017-06-18T03:11:25.727Z,65.88
2017-06-18T03:12:25.724Z,65.97
2017-06-18T03:13:25.722Z,66.06
2017-06-18T03:14:25.719Z,65.97
2017-06-18T03:15:25.719Z,65.88
2017-06-18T03:16:25.717Z,65.88
2017-06-18T03:17:25.715Z,65.88
2017-06-18T03:18:25.404Z,65.78
2017-06-18T03:19:25.709Z,65.88
2017-06-18T03:20:25.706Z,65.78
2017-06-18T03:21:25.705Z,65.68
2017-06-18T03:22:25.701Z,65.97
2017-06-18T03:23:25.397Z,65.49
2017-06-18T03:24:25.697Z,65.88
2017-06-18T03:25:25.694Z,65.88
2017-06-18T03:26:25.694Z,66.16
2017-06-18T03:27:25.693Z,66.06
2017-06-18T03:28:25.383Z,66.26
2017-06-18T03:29:25.688Z,66.26
2017-06-18T03:30:25.687Z,65.97
2017-06-18T03:31:25.687Z,65.59
2017-06-18T03:32:25.683Z,65.88
2017-06-18T03:33:25.682Z,65.88
2017-06-18T03:34:25.680Z,66.16
2017-06-18T03:35:25.679Z,65.88
2017-06-18T03:36:25.673Z,66.35
2017-06-18T03:37:25.671Z,66.16
2017-06-18T03:38:25.670Z,65.97
2017-06-18T03:39:25.669Z,66.16
2017-06-18T03:40:25.662Z,66.06
2017-06-18T03:41:25.869Z,66.35
2017-06-18T03:42:25.660Z,66.35
2017-06-18T03:43:25.356Z,66.45
2017-06-18T03:44:25.352Z,66.64
2017-06-18T03:45:25.654Z,66.64
2017-06-18T03:46:25.681Z,66.64
2017-06-18T03:47:25.650Z,66.64
2017-06-18T03:48:25.647Z,66.55
2017-06-18T03:49:25.645Z,66.45
2017-06-18T03:50:25.641Z,66.35
2017-06-18T03:51:25.649Z,66.35
2017-06-18T03:52:25.638Z,66.45
2017-06-18T03:53:25.635Z,66.55
2017-06-18T03:54:25.360Z,67.32
2017-06-18T03:55:25.631Z,66.35
2017-06-18T03:56:25.324Z,66.64
2017-06-18T03:57:25.631Z,66.55
2017-06-18T03:58:25.322Z,66.35
2017-06-18T03:59:25.319Z,67.12
2017-06-18T04:00:25.624Z,66.16
2017-06-18T04:01:25.620Z,67.02
2017-06-18T04:02:25.616Z,66.64
2017-06-18T04:03:25.616Z,66.64
2017-06-18T04:04:25.614Z,66.55
2017-06-18T04:05:25.612Z,66.55
2017-06-18T04:06:25.609Z,66.64
2017-06-18T04:07:25.607Z,66.64
2017-06-18T04:08:25.607Z,66.64
2017-06-18T04:09:25.295Z,66.55
2017-06-18T04:10:25.603Z,66.55
2017-06-18T04:11:25.598Z,66.64
2017-06-18T04:12:25.597Z,66.55
2017-06-18T04:13:25.593Z,66.74
2017-06-18T04:14:25.593Z,66.55
2017-06-18T04:15:25.283Z,66.45
2017-06-18T04:16:25.281Z,66.45
2017-06-18T04:17:25.283Z,66.45
2017-06-18T04:18:25.583Z,66.45
2017-06-18T04:19:25.582Z,66.45
2017-06-18T04:20:25.580Z,66.45
2017-06-18T04:21:25.582Z,66.55
2017-06-18T04:22:25.574Z,67.02
2017-06-18T04:23:25.267Z,67.5
2017-06-18T04:24:25.572Z,66.64
2017-06-18T04:25:25.569Z,66.45
2017-06-18T04:26:25.567Z,66.1
2017-06-18T04:27:25.563Z,65.62
2017-06-18T04:28:25.560Z,65.33
2017-06-18T04:29:25.562Z,65.14
2017-06-18T04:30:25.562Z,65.68
2017-06-18T04:31:25.557Z,66.16
2017-06-18T04:32:25.246Z,66.16
2017-06-18T04:33:25.551Z,66.74
2017-06-18T04:34:25.550Z,66.64
2017-06-18T04:35:25.551Z,66.64
2017-06-18T04:36:25.544Z,66.55
2017-06-18T04:37:25.544Z,66.74
2017-06-18T04:38:25.542Z,66.64
2017-06-18T04:39:25.542Z,66.35
2017-06-18T04:40:25.538Z,66.26
2017-06-18T04:41:25.536Z,66
2017-06-18T04:42:25.534Z,64.28
2017-06-18T04:43:25.226Z,62.19
2017-06-18T04:44:25.535Z,60.78
2017-06-18T04:45:25.534Z,59.76
2017-06-18T04:46:25.525Z,57.39
2017-06-18T04:47:25.525Z,56.65
2017-06-18T04:48:25.526Z,55.52
2017-06-18T04:49:25.523Z,54
2017-06-18T04:50:25.216Z,53.17
2017-06-18T04:51:25.520Z,52.11
2017-06-18T04:52:25.517Z,51.75
2017-06-18T04:53:25.210Z,50.59
2017-06-18T04:54:25.515Z,50.59
2017-06-18T04:55:25.516Z,50.32
2017-06-18T04:56:25.515Z,49.94
2017-06-18T04:57:25.514Z,49.37
2017-06-18T04:58:25.512Z,48.61
2017-06-18T04:59:25.205Z,48.49
2017-06-18T05:00:25.511Z,48.61
2017-06-18T05:01:25.509Z,48.52
2017-06-18T05:02:25.508Z,48.23
2017-06-18T05:03:25.510Z,47.75
2017-06-18T05:04:25.507Z,47.48
2017-06-18T05:05:25.511Z,47
2017-06-18T05:06:25.511Z,46.71
2017-06-18T05:07:25.506Z,45.96
2017-06-18T05:08:25.507Z,45.48
2017-06-18T05:09:25.204Z,45.28
2017-06-18T05:10:25.511Z,45.21
2017-06-18T05:11:25.509Z,44.82
2017-06-18T05:12:25.510Z,44.34
2017-06-18T05:13:25.508Z,44.15
2017-06-18T05:14:25.510Z,44.05
2017-06-18T05:15:25.511Z,44.63
2017-06-18T05:16:25.514Z,44.6
2017-06-18T05:17:25.513Z,44.8
2017-06-18T05:18:25.514Z,45.38
2017-06-18T05:19:25.514Z,45.94
2017-06-18T05:20:25.518Z,45.94
2017-06-18T05:21:25.522Z,45.17
2017-06-18T05:22:25.519Z,45.45
2017-06-18T05:23:25.524Z,45.45
2017-06-18T05:24:25.526Z,45.75
2017-06-18T05:25:25.525Z,45.26
2017-06-18T05:26:25.526Z,45.55
2017-06-18T05:27:25.529Z,45.65
2017-06-18T05:28:25.528Z,45.75
2017-06-18T05:29:25.531Z,45.17
2017-06-18T05:30:25.532Z,44.32
2017-06-18T05:31:25.539Z,44.22
2017-06-18T05:32:25.540Z,44.12
2017-06-18T05:33:25.539Z,43.85
2017-06-18T05:34:25.543Z,42.99
2017-06-18T05:35:25.546Z,42.99
2017-06-18T05:36:25.550Z,42.12
2017-06-18T05:37:25.551Z,42.89
2017-06-18T05:38:25.552Z,43.37
2017-06-18T05:39:25.250Z,42.7
2017-06-18T05:40:25.558Z,42.99
2017-06-18T05:41:25.563Z,42.5
2017-06-18T05:42:25.260Z,42.43
2017-06-18T05:43:25.568Z,42.24
2017-06-18T05:44:25.573Z,41.66
2017-06-18T05:45:25.574Z,41.58
2017-06-18T05:46:25.578Z,40.73
2017-06-18T05:47:25.581Z,40.34
2017-06-18T05:48:25.279Z,40.44
2017-06-18T05:49:25.586Z,40.73
2017-06-18T05:50:25.591Z,39.86
2017-06-18T05:51:25.594Z,39.49
2017-06-18T05:52:25.600Z,38.71
2017-06-18T05:53:25.298Z,39.03
2017-06-18T05:54:25.606Z,39.03
2017-06-18T05:55:25.607Z,39.59
2017-06-18T05:56:25.612Z,39.49
2017-06-18T05:57:25.619Z,39.39
2017-06-18T05:58:25.620Z,38.91
2017-06-18T05:59:25.628Z,38.15
2017-06-18T06:00:25.627Z,38.35
2017-06-18T06:01:25.635Z,37.98
2017-06-18T06:02:25.634Z,37.96
2017-06-18T06:03:25.644Z,38.25
2017-06-18T06:04:25.646Z,38.15
2017-06-18T06:05:25.656Z,37.85
2017-06-18T06:06:25.348Z,38.33
2017-06-18T06:07:25.660Z,38.53
2017-06-18T06:08:25.664Z,38.45
2017-06-18T06:09:25.669Z,37.87
2017-06-18T06:10:25.673Z,37.21
2017-06-18T06:11:25.374Z,36.54
2017-06-18T06:12:25.684Z,36.35
2017-06-18T06:13:25.687Z,36.62
2017-06-18T06:14:25.693Z,36.93
2017-06-18T06:15:25.697Z,37.11
2017-06-18T06:16:25.729Z,36.72
2017-06-18T06:17:25.402Z,35.77
2017-06-18T06:18:25.712Z,36.35
2017-06-18T06:19:25.720Z,36.72
2017-06-18T06:20:25.722Z,36.33
2017-06-18T06:21:25.726Z,36.06
2017-06-18T06:22:25.731Z,36.25
2017-06-18T06:23:25.739Z,36.35
2017-06-18T06:24:25.440Z,36.44
2017-06-18T06:25:25.748Z,35.96
2017-06-18T06:26:25.752Z,36.25
2017-06-18T06:27:25.758Z,36.62
2017-06-18T06:28:25.763Z,36.62
2017-06-18T06:29:25.768Z,36.62
2017-06-18T06:30:25.774Z,35.94
2017-06-18T06:31:25.778Z,35.85
2017-06-18T06:32:25.783Z,35.28
2017-06-18T06:33:25.484Z,34.72
2017-06-18T06:34:25.794Z,34.06
2017-06-18T06:35:25.798Z,33.2
2017-06-18T06:36:25.498Z,33.11
2017-06-18T06:37:25.810Z,33.01
2017-06-18T06:38:25.813Z,33.11
2017-06-18T06:39:25.822Z,32.89
2017-06-18T06:40:25.826Z,33.09
2017-06-18T06:41:25.526Z,33.18
2017-06-18T06:42:25.528Z,33.18
2017-06-18T06:43:25.839Z,33.07
2017-06-18T06:44:25.843Z,32.89
2017-06-18T06:45:25.851Z,32.7
2017-06-18T06:46:25.854Z,32.6
2017-06-18T06:47:25.553Z,32.97
2017-06-18T06:48:25.860Z,33.36
2017-06-18T06:49:25.871Z,33.07
2017-06-18T06:50:25.870Z,32.7
2017-06-18T06:51:25.571Z,32.79
2017-06-18T06:52:25.570Z,32.89
2017-06-18T06:53:25.881Z,31.92
2017-06-18T06:54:25.886Z,31.65
2017-06-18T06:55:25.583Z,31.95
2017-06-18T06:56:25.898Z,31.76
2017-06-18T06:57:25.591Z,31.08
2017-06-18T06:58:25.902Z,31.1
2017-06-18T06:59:25.905Z,31.37
2017-06-18T07:00:25.606Z,31.08
2017-06-18T07:01:25.914Z,30.8
2017-06-18T07:02:25.610Z,31.1
2017-06-18T07:03:25.919Z,30.9
2017-06-18T07:04:25.919Z,30.71
2017-06-18T07:05:25.927Z,30.12
2017-06-18T07:06:25.929Z,30.02
2017-06-18T07:07:25.625Z,29.64
2017-06-18T07:08:25.938Z,29.64
2017-06-18T07:09:25.940Z,29.74
2017-06-18T07:10:25.943Z,29.54
2017-06-18T07:11:25.942Z,29.54
2017-06-18T07:12:25.945Z,29.64
2017-06-18T07:13:25.951Z,30.12
2017-06-18T07:14:25.950Z,29.64
2017-06-18T07:15:25.959Z,28.88
2017-06-18T07:16:25.957Z,28.2
2017-06-18T07:17:25.656Z,27.44
2017-06-18T07:18:25.658Z,26.68
2017-06-18T07:19:25.966Z,26.87
2017-06-18T07:20:25.968Z,27.82
2017-06-18T07:21:25.972Z,27.7
2017-06-18T07:22:25.974Z,27.23
2017-06-18T07:23:25.669Z,26.36
2017-06-18T07:24:25.979Z,26.28
2017-06-18T07:25:25.978Z,26.46
2017-06-18T07:26:25.981Z,26.46
2017-06-18T07:27:25.981Z,27.33
2017-06-18T07:28:25.987Z,27.72
2017-06-18T07:29:25.986Z,27.51
2017-06-18T07:30:25.989Z,28
2017-06-18T07:31:25.991Z,27.8
2017-06-18T07:32:25.992Z,26.93
2017-06-18T07:33:25.994Z,27.32
2017-06-18T07:34:25.994Z,26.54
2017-06-18T07:35:25.996Z,26.44
2017-06-18T07:36:26.000Z,25.58
2017-06-18T07:37:25.999Z,25.59
2017-06-18T07:38:26.028Z,24.91
2017-06-18T07:39:26.008Z,24.54
2017-06-18T07:40:26.005Z,24.54
2017-06-18T07:41:26.005Z,24.54
2017-06-18T07:42:26.008Z,24.63
2017-06-18T07:43:26.011Z,24.24
2017-06-18T07:44:26.020Z,24.62
2017-06-18T07:45:26.010Z,24.72
2017-06-18T07:46:26.014Z,25.2
2017-06-18T07:47:26.016Z,25.59
2017-06-18T07:48:26.013Z,25.58
2017-06-18T07:49:26.018Z,25.87
2017-06-18T07:50:26.020Z,26.17
2017-06-18T07:51:25.716Z,26.17
2017-06-18T07:52:26.022Z,26.07
2017-06-18T07:53:26.027Z,25.48
2017-06-18T07:54:26.022Z,25.02
2017-06-18T07:55:26.025Z,25.31
2017-06-18T07:56:26.030Z,25.6
2017-06-18T07:57:26.030Z,25.51
2017-06-18T07:58:26.029Z,24.94
2017-06-18T07:59:26.028Z,24.37
2017-06-18T08:00:26.031Z,24.08
2017-06-18T08:01:26.033Z,24.07
2017-06-18T08:02:26.033Z,24.37
2017-06-18T08:03:26.035Z,24.56
2017-06-18T08:04:26.035Z,24.37
2017-06-18T08:05:26.039Z,24.74
2017-06-18T08:06:26.041Z,25.42
2017-06-18T08:07:26.040Z,25.03
2017-06-18T08:08:25.734Z,25.42
2017-06-18T08:09:25.736Z,25.12
2017-06-18T08:10:26.040Z,25.62
2017-06-18T08:11:26.043Z,25.53
2017-06-18T08:12:26.047Z,24.95
2017-06-18T08:13:26.044Z,25.14
2017-06-18T08:14:26.047Z,25.24
2017-06-18T08:15:26.045Z,24.48
2017-06-18T08:16:26.051Z,24.49
2017-06-18T08:17:26.048Z,24.1
2017-06-18T08:18:26.051Z,23.82
2017-06-18T08:19:26.052Z,23.91
2017-06-18T08:20:26.053Z,24.39
2017-06-18T08:21:25.750Z,24.38
2017-06-18T08:22:25.751Z,25.25
2017-06-18T08:23:25.751Z,26.1
2017-06-18T08:24:26.052Z,26.48
2017-06-18T08:25:26.055Z,26.58
2017-06-18T08:26:26.058Z,26.39
2017-06-18T08:27:26.055Z,25.62
2017-06-18T08:28:26.054Z,25.82
2017-06-18T08:29:25.751Z,25.73
2017-06-18T08:30:26.059Z,26.12
2017-06-18T08:31:26.061Z,25.73
2017-06-18T08:32:26.059Z,25.62
2017-06-18T08:33:25.754Z,26.01
2017-06-18T08:34:26.059Z,25.63
2017-06-18T08:35:25.781Z,25.13
2017-06-18T08:36:26.060Z,25.42
2017-06-18T08:37:26.059Z,25.14
2017-06-18T08:38:26.062Z,25.73
2017-06-18T08:39:26.062Z,26.21
2017-06-18T08:40:26.062Z,27.26
2017-06-18T08:41:26.064Z,27.92
2017-06-18T08:42:26.062Z,28.29
2017-06-18T08:43:25.755Z,28.58
2017-06-18T08:44:26.062Z,29.33
2017-06-18T08:45:26.064Z,29.62
2017-06-18T08:46:26.063Z,30.29
2017-06-18T08:47:25.756Z,31.15
2017-06-18T08:48:26.064Z,31.32
2017-06-18T08:49:26.068Z,30.76
2017-06-18T08:50:26.065Z,30.57
2017-06-18T08:51:26.063Z,30.48
2017-06-18T08:52:26.066Z,30.18
2017-06-18T08:53:26.066Z,30.27
2017-06-18T08:54:25.766Z,30.57
2017-06-18T08:55:26.063Z,31.63
2017-06-18T08:56:26.065Z,31.91
2017-06-18T08:57:26.064Z,32.76
2017-06-18T08:58:26.064Z,34.02
2017-06-18T08:59:26.062Z,34.3
2017-06-18T09:00:26.067Z,35.15
2017-06-18T09:01:26.068Z,35.62
2017-06-18T09:02:25.764Z,35.91
2017-06-18T09:03:26.065Z,37.15
2017-06-18T09:04:25.759Z,37.82
2017-06-18T09:05:26.065Z,38.5
2017-06-18T09:06:26.075Z,38.02
2017-06-18T09:07:26.068Z,38.29
2017-06-18T09:08:26.067Z,38.48
2017-06-18T09:09:26.063Z,38.68
2017-06-18T09:10:26.064Z,38.48
2017-06-18T09:11:26.064Z,38.66
2017-06-18T09:12:26.067Z,39.04
2017-06-18T09:13:25.754Z,39.34
2017-06-18T09:14:26.064Z,39.8
2017-06-18T09:15:26.066Z,39.61
2017-06-18T09:16:25.758Z,39.41
2017-06-18T09:17:26.061Z,39.34
2017-06-18T09:18:26.061Z,39.24
2017-06-18T09:19:26.062Z,39.34
2017-06-18T09:20:25.757Z,39.43
2017-06-18T09:21:26.063Z,39.14
2017-06-18T09:22:26.059Z,39.36
2017-06-18T09:23:26.059Z,38.68
2017-06-18T09:24:26.058Z,38.48
2017-06-18T09:25:26.059Z,38.08
2017-06-18T09:26:25.753Z,39.43
2017-06-18T09:27:26.059Z,39.34
2017-06-18T09:28:26.060Z,39.82
2017-06-18T09:29:26.059Z,39.7
2017-06-18T09:30:26.058Z,39.41
2017-06-18T09:31:25.754Z,39.61
2017-06-18T09:32:26.058Z,39.8
2017-06-18T09:33:26.056Z,39.7
2017-06-18T09:34:26.055Z,39.51
2017-06-18T09:35:26.079Z,40.09
2017-06-18T09:36:26.056Z,40.77
2017-06-18T09:37:26.060Z,40.96
2017-06-18T09:38:26.056Z,40.96
2017-06-18T09:39:26.053Z,40.86
2017-06-18T09:40:26.056Z,40.47
2017-06-18T09:41:26.056Z,40.28
2017-06-18T09:42:26.053Z,40.77
2017-06-18T09:43:26.054Z,41.15
2017-06-18T09:44:26.052Z,41.33
2017-06-18T09:45:25.748Z,41.42
2017-06-18T09:46:26.052Z,41.25
2017-06-18T09:47:26.052Z,41.83
2017-06-18T09:48:26.055Z,41.54
2017-06-18T09:49:26.052Z,41.25
2017-06-18T09:50:25.745Z,41.71
2017-06-18T09:51:26.051Z,41.91
2017-06-18T09:52:25.743Z,41.23
2017-06-18T09:53:25.741Z,41.23
2017-06-18T09:54:26.050Z,41.23
2017-06-18T09:55:25.743Z,41.81
2017-06-18T09:56:26.049Z,42.39
2017-06-18T09:57:26.046Z,41.81
2017-06-18T09:58:26.049Z,41.52
2017-06-18T09:59:26.045Z,41.52
2017-06-18T10:00:25.738Z,41.13
2017-06-18T10:01:25.738Z,41.33
2017-06-18T10:02:26.047Z,41.23
2017-06-18T10:03:25.740Z,41.91
2017-06-18T10:04:26.045Z,42.39
2017-06-18T10:05:26.045Z,41.91
2017-06-18T10:06:26.042Z,42.39
2017-06-18T10:07:26.040Z,42.39
2017-06-18T10:08:26.041Z,41.52
2017-06-18T10:09:26.041Z,41.23
2017-06-18T10:10:26.039Z,41.33
2017-06-18T10:11:26.039Z,40.67
2017-06-18T10:12:26.042Z,40.94
2017-06-18T10:13:26.036Z,40.65
2017-06-18T10:14:26.042Z,40.77
2017-06-18T10:15:26.036Z,40.96
2017-06-18T10:16:26.036Z,41.44
2017-06-18T10:17:26.039Z,41.15
2017-06-18T10:18:26.035Z,41.05
2017-06-18T10:19:26.035Z,40.84
2017-06-18T10:20:26.033Z,41.13
2017-06-18T10:21:26.036Z,41.81
2017-06-18T10:22:25.727Z,42.39
2017-06-18T10:23:26.032Z,41.91
2017-06-18T10:24:26.030Z,42.1
2017-06-18T10:25:25.727Z,41.61
2017-06-18T10:26:25.724Z,41.52
2017-06-18T10:27:25.722Z,41.23
2017-06-18T10:28:26.030Z,41.52
2017-06-18T10:29:26.027Z,41.52
2017-06-18T10:30:26.027Z,41.42
2017-06-18T10:31:26.027Z,41.61
2017-06-18T10:32:26.027Z,40.94
2017-06-18T10:33:26.025Z,41.13
2017-06-18T10:34:26.025Z,41.03
2017-06-18T10:35:26.025Z,41.13
2017-06-18T10:36:25.719Z,41.25
2017-06-18T10:37:26.023Z,40.94
2017-06-18T10:38:25.716Z,41.03
2017-06-18T10:39:26.024Z,39.97
2017-06-18T10:40:26.018Z,39.87
2017-06-18T10:41:26.020Z,39.87
2017-06-18T10:42:26.023Z,39.97
2017-06-18T10:43:26.016Z,40.26
2017-06-18T10:44:25.709Z,39.78
2017-06-18T10:45:26.017Z,40.07
2017-06-18T10:46:25.710Z,39.97
2017-06-18T10:47:26.016Z,39.78
2017-06-18T10:48:26.014Z,39.49
2017-06-18T10:49:25.707Z,39.29
2017-06-18T10:50:26.015Z,39.97
2017-06-18T10:51:26.014Z,39.78
2017-06-18T10:52:26.013Z,40.17
2017-06-18T10:53:26.013Z,40.36
2017-06-18T10:54:26.008Z,40.75
2017-06-18T10:55:26.010Z,40.55
2017-06-18T10:56:26.010Z,40.75
2017-06-18T10:57:26.007Z,40.09
2017-06-18T10:58:26.008Z,39.9
2017-06-18T10:59:26.003Z,39.51
2017-06-18T11:00:25.702Z,39.41
2017-06-18T11:01:26.006Z,40.09
2017-06-18T11:02:26.003Z,39.8
2017-06-18T11:03:26.003Z,39.8
2017-06-18T11:04:26.003Z,39.32
2017-06-18T11:05:26.002Z,38.93
2017-06-18T11:06:26.002Z,39.8
2017-06-18T11:07:26.003Z,39.41
2017-06-18T11:08:25.999Z,39.32
2017-06-18T11:09:25.999Z,39.22
2017-06-18T11:10:26.000Z,38.64
2017-06-18T11:11:25.998Z,38.93
2017-06-18T11:12:25.997Z,38.83
2017-06-18T11:13:25.995Z,39.51
2017-06-18T11:14:25.992Z,39.2
2017-06-18T11:15:25.689Z,39.49
2017-06-18T11:16:25.994Z,39.61
2017-06-18T11:17:25.999Z,39.39
2017-06-18T11:18:25.993Z,39.2
2017-06-18T11:19:25.995Z,39.51
2017-06-18T11:20:25.999Z,39.39
2017-06-18T11:21:25.991Z,39.97
2017-06-18T11:22:25.991Z,40.09
2017-06-18T11:23:25.685Z,40.96
2017-06-18T11:24:25.990Z,39.9
2017-06-18T11:25:25.682Z,39.41
2017-06-18T11:26:25.986Z,39.24
2017-06-18T11:27:25.984Z,39.72
2017-06-18T11:28:25.985Z,38.76
2017-06-18T11:29:25.986Z,38.56
2017-06-18T11:30:25.984Z,38.56
2017-06-18T11:31:25.981Z,38.28
2017-06-18T11:32:25.982Z,38.46
2017-06-18T11:33:25.674Z,38.37
2017-06-18T11:34:25.979Z,38.46
2017-06-18T11:35:25.978Z,38.46
2017-06-18T11:36:25.672Z,38.66
2017-06-18T11:37:25.674Z,38.76
2017-06-18T11:38:25.975Z,38.56
2017-06-18T11:39:25.975Z,38.18
2017-06-18T11:40:25.975Z,37.48
2017-06-18T11:41:25.976Z,37.7
2017-06-18T11:42:25.975Z,37.12
2017-06-18T11:43:25.664Z,38.08
2017-06-18T11:44:25.665Z,37.5
2017-06-18T11:45:25.972Z,38.28
2017-06-18T11:46:25.969Z,37.5
2017-06-18T11:47:25.661Z,37.79
2017-06-18T11:48:25.967Z,37.88
2017-06-18T11:49:25.969Z,37.98
2017-06-18T11:50:25.966Z,38.28
2017-06-18T11:51:25.663Z,38.37
2017-06-18T11:52:25.965Z,38.08
2017-06-18T11:53:25.656Z,38.37
2017-06-18T11:54:25.964Z,38.18
2017-06-18T11:55:25.657Z,37.88
2017-06-18T11:56:25.962Z,37.4
2017-06-18T11:57:25.961Z,37.5
2017-06-18T11:58:25.960Z,37.7
2017-06-18T11:59:25.960Z,37.3
2017-06-18T12:00:25.960Z,37.88
2017-06-18T12:01:25.654Z,37.88
2017-06-18T12:02:25.650Z,36.92
2017-06-18T12:03:25.955Z,37.12
2017-06-18T12:04:25.955Z,36.44
2017-06-18T12:05:25.953Z,37.02
2017-06-18T12:06:25.954Z,36.15
2017-06-18T12:07:25.954Z,36.24
2017-06-18T12:08:25.957Z,35.97
2017-06-18T12:09:25.952Z,35.97
2017-06-18T12:10:25.951Z,36.53
2017-06-18T12:11:25.959Z,36.72
2017-06-18T12:12:25.948Z,37.02
2017-06-18T12:13:25.642Z,36.26
2017-06-18T12:14:25.949Z,35.68
2017-06-18T12:15:25.945Z,36.07
2017-06-18T12:16:25.946Z,36.55
2017-06-18T12:17:25.942Z,36.72
2017-06-18T12:18:25.942Z,35.78
2017-06-18T12:19:25.636Z,35.88
2017-06-18T12:20:25.633Z,36.65
2017-06-18T12:21:25.944Z,36.46
2017-06-18T12:22:25.632Z,36.55
2017-06-18T12:23:25.937Z,36.36
2017-06-18T12:24:25.940Z,35.68
2017-06-18T12:25:25.938Z,35.58
2017-06-18T12:26:25.936Z,35.76
2017-06-18T12:27:25.627Z,36.16
2017-06-18T12:28:25.936Z,35.88
2017-06-18T12:29:25.932Z,36.07
2017-06-18T12:30:25.932Z,36.55
2017-06-18T12:31:25.931Z,36.26
2017-06-18T12:32:25.938Z,36.94
2017-06-18T12:33:25.928Z,36.47
2017-06-18T12:34:25.928Z,35.29
2017-06-18T12:35:25.626Z,34.23
2017-06-18T12:36:25.622Z,34.33
2017-06-18T12:37:25.928Z,34.23
2017-06-18T12:38:25.926Z,33.45
2017-06-18T12:39:25.928Z,33.26
2017-06-18T12:40:25.926Z,33.94
2017-06-18T12:41:25.617Z,33.84
2017-06-18T12:42:25.621Z,33.84
2017-06-18T12:43:25.922Z,34.04
2017-06-18T12:44:25.616Z,34.04
2017-06-18T12:45:25.614Z,34.04
2017-06-18T12:46:25.920Z,33.84
2017-06-18T12:47:25.920Z,34.33
2017-06-18T12:48:25.611Z,34.62
2017-06-18T12:49:25.916Z,34.13
2017-06-18T12:50:25.613Z,33.84
2017-06-18T12:51:25.608Z,33.17
2017-06-18T12:52:25.912Z,33.26
2017-06-18T12:53:25.605Z,32.97
2017-06-18T12:54:25.913Z,33.28
2017-06-18T12:55:25.910Z,32.97